Mount Vernon, IN (47620)

8:05 PM CST on January 17, 2017 (GMT -0600)
KINMTVER2 | | Change Station
Active Advisory: Flood Warning

Elev 389 ft 37.94 °N, 87.89 °W | Updated 3 seconds ago

Overcast
Overcast
42.8 °F
Feels Like 39 °F
N
5.8
Wind Variable Wind from West
Gusts 0.0 mph

Today
High -- | Low -- °F
--% Chance of Precip.
Yesterday
High -- | Low -- °F
Precip. -- in
Pressure 30.14 in
Visibility 10.0 miles
Clouds Overcast 2200 ft
Windchill 39 °F
Dew Point 39 °F
Humidity 85%
Rainfall 0.00 in
Snow Depth Not available.
7:05 AM 4:58 PM
Waning Gibbous, 68% visible
METAR KEHR 180155Z 28008KT 10SM OVC022 07/03 A3014 RMK AO1
Pressure 30.14 in
Visibility 10.0 miles
Clouds Overcast 2200 ft
Windchill 39 °F
Dew Point 39 °F
Humidity 85%
Rainfall 0.00 in
Snow Depth Not available.
7:05 AM 4:58 PM
Waning Gibbous, 68% visible
METAR KEHR 180155Z 28008KT 10SM OVC022 07/03 A3014 RMK AO1

Get Your Daily Forecast Email!

Thanks for signing up!

Be on the lookout for a verification email in your inbox.

You'll start receiving the daily forecast at 8 AM.

×

10-Day Weather Forecast

Almanac

Astronomy

Jan. 17, 2017 Rise Set
Actual Time
Civil Twilight
Nautical Twilight
Astronomical Twilight
Moon
Length of Visible Light
Length of Day
Tomorrow will be .
, % of the Moon is Illuminated

Today's Extremes

State Highs State Lows

Community

WunderPhotos

Upload Photos

1,962,540 photos uploaded!

WunderBlog® & News

Nearby

Air Quality

  Air Quality AQ Index Pollutant
Not available.

Snow Depth

Station Depth Elevation

Earthquake Activity

City Distance Mag. Time & Date
Minimum magnitude displayed is 2.5.

Coastal Water Temperatures

Place Temperature

Stations

Nearby Weather Stations

Station Location Temp. Windchill Dew Point Humidity Wind Precip. Elev Updated Type
                   

Watches & Warnings

Flood Warning
Issued: 4:34 PM CST Jan. 17, 2017 – National Weather Service

The Flood Warning continues for
the Wabash River at Mount Carmel.
* From Sunday morning to Sunday evening.
* At 4:00 PM Tuesday the stage was 15.7 feet.
* Flood stage is 19.0 feet.
* Forecast... the river is expected to rise to near flood stage late
Sunday morning.
* At 18.4 feet... pumping started at Mt. Carmel.


Lat... Lon 3847 8777 3827 8800 3822 8800 3822 8794
      3828 8781 3846 8765